createdAt,value
2024-03-20T00:00:47.775Z,11.25
2024-03-20T00:01:47.804Z,11.25
2024-03-20T00:02:47.785Z,11.27
2024-03-20T00:03:47.781Z,11.28
2024-03-20T00:04:47.754Z,11.29
2024-03-20T00:05:47.749Z,11.29
2024-03-20T00:06:47.714Z,11.27
2024-03-20T00:07:47.692Z,11.29
2024-03-20T00:08:47.702Z,11.33
2024-03-20T00:09:47.702Z,11.32
2024-03-20T00:10:47.659Z,11.29
2024-03-20T00:11:47.665Z,11.28
2024-03-20T00:12:47.623Z,11.27
2024-03-20T00:13:47.624Z,11.25
2024-03-20T00:14:47.636Z,11.24
2024-03-20T00:15:47.628Z,11.24
2024-03-20T00:16:47.598Z,11.27
2024-03-20T00:17:47.596Z,11.27
2024-03-20T00:18:47.552Z,11.25
2024-03-20T00:19:47.562Z,11.24
2024-03-20T00:20:47.562Z,11.25
2024-03-20T00:21:47.522Z,11.22
2024-03-20T00:22:47.503Z,11.22
2024-03-20T00:23:47.492Z,11.22
2024-03-20T00:24:47.484Z,11.24
2024-03-20T00:25:47.457Z,11.24
2024-03-20T00:26:47.496Z,11.21
2024-03-20T00:27:47.454Z,11.19
2024-03-20T00:28:47.422Z,11.18
2024-03-20T00:29:47.415Z,11.15
2024-03-20T00:30:47.379Z,11.14
2024-03-20T00:31:47.381Z,11.09
2024-03-20T00:32:47.387Z,11.09
2024-03-20T00:33:47.397Z,11.07
2024-03-20T00:34:47.349Z,11.04
2024-03-20T00:35:47.322Z,11.03
2024-03-20T00:36:47.311Z,11.00
2024-03-20T00:37:47.322Z,11.02
2024-03-20T00:38:47.296Z,11.02
2024-03-20T00:39:47.273Z,10.99
2024-03-20T00:40:47.282Z,10.99
2024-03-20T00:41:47.245Z,10.97
2024-03-20T00:42:47.260Z,10.97
2024-03-20T00:43:47.257Z,10.97
2024-03-20T00:44:47.218Z,10.97
2024-03-20T00:45:47.217Z,10.96
2024-03-20T00:46:47.205Z,10.94
2024-03-20T00:47:48.138Z,10.94
2024-03-20T00:48:47.155Z,10.94
2024-03-20T00:49:47.162Z,10.92
2024-03-20T00:50:47.166Z,10.94
2024-03-20T00:51:47.137Z,10.96
2024-03-20T00:52:52.167Z,10.97
2024-03-20T00:53:48.094Z,10.94
2024-03-20T00:54:47.100Z,10.94
2024-03-20T00:55:47.093Z,10.92
2024-03-20T00:56:47.044Z,10.92
2024-03-20T00:57:47.024Z,10.89
2024-03-20T00:58:47.026Z,10.89
2024-03-20T00:59:47.013Z,10.86
2024-03-20T01:00:47.015Z,10.85
2024-03-20T01:01:47.005Z,10.82
2024-03-20T01:02:47.049Z,10.81
2024-03-20T01:03:46.957Z,10.81
2024-03-20T01:04:46.976Z,10.84
2024-03-20T01:05:46.955Z,10.82
2024-03-20T01:06:46.944Z,10.84
2024-03-20T01:07:46.943Z,10.84
2024-03-20T01:08:46.882Z,10.85
2024-03-20T01:09:46.891Z,10.84
2024-03-20T01:10:46.904Z,10.84
2024-03-20T01:11:46.882Z,10.86
2024-03-20T01:12:46.844Z,10.86
2024-03-20T01:13:46.817Z,10.86
2024-03-20T01:14:46.821Z,10.86
2024-03-20T01:15:46.813Z,10.85
2024-03-20T01:16:46.775Z,10.86
2024-03-20T01:17:46.825Z,10.89
2024-03-20T01:18:46.787Z,10.88
2024-03-20T01:19:46.761Z,10.89
2024-03-20T01:20:46.763Z,10.91
2024-03-20T01:21:46.715Z,10.89
2024-03-20T01:22:46.713Z,10.89
2024-03-20T01:23:46.733Z,10.89
2024-03-20T01:24:46.685Z,10.88
2024-03-20T01:25:46.678Z,10.88
2024-03-20T01:26:46.641Z,10.86
2024-03-20T01:27:46.647Z,10.85
2024-03-20T01:28:46.655Z,10.84
2024-03-20T01:29:46.623Z,10.86
2024-03-20T01:30:46.621Z,10.86
2024-03-20T01:31:46.592Z,10.85
2024-03-20T01:32:46.573Z,10.85
2024-03-20T01:33:46.584Z,10.86
2024-03-20T01:34:46.589Z,10.88
2024-03-20T01:35:46.529Z,10.88
2024-03-20T01:36:46.524Z,10.84
2024-03-20T01:37:46.509Z,10.86
2024-03-20T01:38:46.514Z,10.85
2024-03-20T01:39:46.505Z,10.85
2024-03-20T01:40:46.493Z,10.82
2024-03-20T01:41:46.481Z,10.81
2024-03-20T01:42:46.457Z,10.79
2024-03-20T01:43:46.458Z,10.78
2024-03-20T01:44:46.427Z,10.76
2024-03-20T01:45:46.437Z,10.74
2024-03-20T01:46:46.406Z,10.73
2024-03-20T01:47:46.376Z,10.67
2024-03-20T01:48:46.377Z,10.66
2024-03-20T01:49:46.354Z,10.64
2024-03-20T01:50:46.340Z,10.64
2024-03-20T01:51:46.419Z,10.63
2024-03-20T01:52:46.305Z,10.61
2024-03-20T01:53:46.310Z,10.60
2024-03-20T01:54:46.289Z,10.59
2024-03-20T01:55:46.271Z,10.56
2024-03-20T01:56:46.277Z,10.60
2024-03-20T01:57:46.248Z,10.56
2024-03-20T01:58:46.251Z,10.59
2024-03-20T01:59:46.221Z,10.60
2024-03-20T02:00:46.222Z,10.63
2024-03-20T02:01:46.195Z,10.63
2024-03-20T02:02:46.226Z,10.63
2024-03-20T02:03:46.187Z,10.63
2024-03-20T02:04:46.154Z,10.60
2024-03-20T02:05:46.147Z,10.56
2024-03-20T02:06:46.153Z,10.56
2024-03-20T02:07:46.157Z,10.53
2024-03-20T02:08:46.115Z,10.52
2024-03-20T02:09:46.114Z,10.52
2024-03-20T02:10:46.101Z,10.53
2024-03-20T02:11:46.087Z,10.53
2024-03-20T02:12:46.044Z,10.51
2024-03-20T02:13:46.305Z,10.53
2024-03-20T02:14:46.016Z,10.51
2024-03-20T02:15:46.014Z,10.48
2024-03-20T02:16:46.017Z,10.47
2024-03-20T02:17:46.306Z,10.45
2024-03-20T02:18:45.976Z,10.45
2024-03-20T02:19:45.982Z,10.42
2024-03-20T02:20:45.945Z,10.41
2024-03-20T02:21:45.944Z,10.41
2024-03-20T02:22:45.907Z,10.40
2024-03-20T02:23:45.933Z,10.38
2024-03-20T02:24:45.913Z,10.36
2024-03-20T02:25:45.878Z,10.40
2024-03-20T02:26:45.881Z,10.41
2024-03-20T02:27:45.865Z,10.42
2024-03-20T02:28:45.837Z,10.41
2024-03-20T02:29:45.855Z,10.40
2024-03-20T02:30:45.811Z,10.41
2024-03-20T02:31:45.808Z,10.42
2024-03-20T02:32:45.804Z,10.40
2024-03-20T02:33:45.770Z,10.40
2024-03-20T02:34:45.777Z,10.40
2024-03-20T02:35:45.781Z,10.38
2024-03-20T02:36:45.743Z,10.38
2024-03-20T02:37:45.725Z,10.38
2024-03-20T02:38:45.716Z,10.38
2024-03-20T02:39:45.717Z,10.33
2024-03-20T02:40:45.730Z,10.36
2024-03-20T02:41:45.683Z,10.36
2024-03-20T02:42:45.700Z,10.38
2024-03-20T02:43:45.635Z,10.38
2024-03-20T02:44:45.642Z,10.38
2024-03-20T02:45:45.621Z,10.38
2024-03-20T02:46:45.625Z,10.36
2024-03-20T02:47:45.582Z,10.36
2024-03-20T02:48:45.575Z,10.41
2024-03-20T02:49:45.580Z,10.38
2024-03-20T02:50:45.551Z,10.38
2024-03-20T02:51:45.564Z,10.38
2024-03-20T02:52:45.548Z,10.34
2024-03-20T02:53:45.528Z,10.38
2024-03-20T02:54:45.510Z,10.36
2024-03-20T02:55:45.477Z,10.36
2024-03-20T02:56:45.472Z,10.34
2024-03-20T02:57:45.485Z,10.34
2024-03-20T02:58:45.437Z,10.34
2024-03-20T02:59:45.442Z,10.34
2024-03-20T03:00:45.412Z,10.34
2024-03-20T03:01:45.416Z,10.33
2024-03-20T03:02:45.406Z,10.32
2024-03-20T03:03:45.420Z,10.32
2024-03-20T03:04:45.372Z,10.32
2024-03-20T03:05:45.359Z,10.30
2024-03-20T03:06:45.337Z,10.30
2024-03-20T03:07:45.347Z,10.32
2024-03-20T03:08:45.352Z,10.33
2024-03-20T03:09:45.312Z,10.32
2024-03-20T03:10:45.315Z,10.33
2024-03-20T03:11:45.284Z,10.33
2024-03-20T03:12:45.287Z,10.32
2024-03-20T03:13:45.288Z,10.32
2024-03-20T03:14:49.706Z,10.29
2024-03-20T03:15:46.267Z,10.27
2024-03-20T03:16:45.205Z,10.29
2024-03-20T03:17:45.208Z,10.29
2024-03-20T03:18:45.180Z,10.29
2024-03-20T03:19:45.223Z,10.25
2024-03-20T03:20:45.175Z,10.25
2024-03-20T03:21:45.148Z,10.23
2024-03-20T03:22:45.133Z,10.25
2024-03-20T03:23:45.109Z,10.20
2024-03-20T03:24:45.112Z,10.20
2024-03-20T03:25:45.136Z,10.18
2024-03-20T03:26:45.080Z,10.20
2024-03-20T03:27:46.049Z,10.17
2024-03-20T03:28:45.059Z,10.15
2024-03-20T03:29:45.035Z,10.15
2024-03-20T03:30:45.048Z,10.12
2024-03-20T03:31:45.014Z,10.11
2024-03-20T03:32:45.011Z,10.11
2024-03-20T03:33:44.986Z,10.07
2024-03-20T03:34:44.982Z,10.07
2024-03-20T03:35:45.661Z,10.04
2024-03-20T03:36:44.960Z,10.02
2024-03-20T03:37:44.958Z,10.02
2024-03-20T03:38:44.917Z,10.01
2024-03-20T03:39:44.902Z,10.02
2024-03-20T03:40:44.906Z,10.01
2024-03-20T03:41:44.872Z,10.01
2024-03-20T03:42:44.881Z,10.02
2024-03-20T03:43:44.849Z,10.01
2024-03-20T03:44:44.837Z,9.99
2024-03-20T03:45:44.841Z,9.97
2024-03-20T03:46:44.813Z,9.97
2024-03-20T03:47:44.830Z,9.97
2024-03-20T03:48:44.782Z,9.94
2024-03-20T03:49:44.767Z,9.93
2024-03-20T03:50:44.777Z,9.96
2024-03-20T03:51:44.747Z,9.93
2024-03-20T03:52:44.739Z,9.93
2024-03-20T03:53:44.752Z,9.91
2024-03-20T03:54:44.694Z,9.90
2024-03-20T03:55:44.701Z,9.89
2024-03-20T03:56:44.680Z,9.89
2024-03-20T03:57:44.672Z,9.86
2024-03-20T03:58:44.684Z,9.87
2024-03-20T03:59:44.661Z,9.86
2024-03-20T04:00:44.635Z,9.84
2024-03-20T04:01:44.630Z,9.84
2024-03-20T04:02:45.549Z,9.83
2024-03-20T04:03:44.581Z,9.79
2024-03-20T04:04:44.613Z,9.81
2024-03-20T04:05:44.566Z,9.78
2024-03-20T04:06:44.559Z,9.76
2024-03-20T04:07:44.535Z,9.74
2024-03-20T04:08:44.547Z,9.74
2024-03-20T04:09:44.499Z,9.72
2024-03-20T04:10:44.541Z,9.74
2024-03-20T04:11:44.478Z,9.74
2024-03-20T04:12:44.475Z,9.72
2024-03-20T04:13:44.484Z,9.71
2024-03-20T04:14:44.458Z,9.69
2024-03-20T04:15:44.434Z,9.69
2024-03-20T04:16:44.444Z,9.69
2024-03-20T04:17:44.417Z,9.69
2024-03-20T04:18:44.411Z,9.68
2024-03-20T04:19:45.942Z,9.68
2024-03-20T04:20:44.369Z,9.66
2024-03-20T04:21:44.377Z,9.66
2024-03-20T04:22:44.353Z,9.66
2024-03-20T04:23:44.349Z,9.66
2024-03-20T04:24:44.292Z,9.65
2024-03-20T04:25:44.296Z,9.64
2024-03-20T04:26:44.306Z,9.61
2024-03-20T04:27:44.269Z,9.60
2024-03-20T04:28:44.275Z,9.58
2024-03-20T04:29:44.256Z,9.57
2024-03-20T04:30:44.233Z,9.54
2024-03-20T04:31:44.223Z,9.53
2024-03-20T04:32:44.215Z,9.51
2024-03-20T04:33:44.210Z,9.50
2024-03-20T04:34:44.199Z,9.47
2024-03-20T04:35:44.165Z,9.46
2024-03-20T04:36:44.145Z,9.43
2024-03-20T04:37:44.147Z,9.40
2024-03-20T04:38:44.155Z,9.42
2024-03-20T04:39:44.112Z,9.39
2024-03-20T04:40:44.094Z,9.38
2024-03-20T04:41:44.131Z,9.38
2024-03-20T04:42:44.103Z,9.35
2024-03-20T04:43:44.084Z,9.36
2024-03-20T04:44:44.039Z,9.35
2024-03-20T04:45:44.049Z,9.32
2024-03-20T04:46:44.044Z,9.32
2024-03-20T04:47:44.009Z,9.32
2024-03-20T04:48:44.021Z,9.32
2024-03-20T04:49:44.000Z,9.31
2024-03-20T04:50:43.991Z,9.31
2024-03-20T04:51:43.988Z,9.29
2024-03-20T04:52:43.957Z,9.29
2024-03-20T04:53:43.954Z,9.28
2024-03-20T04:54:43.950Z,9.28
2024-03-20T04:55:43.940Z,9.24
2024-03-20T04:56:43.916Z,9.26
2024-03-20T04:57:43.881Z,9.28
2024-03-20T04:58:43.874Z,9.28
2024-03-20T04:59:43.868Z,9.26
2024-03-20T05:00:43.893Z,9.26
2024-03-20T05:01:43.870Z,9.26
2024-03-20T05:02:43.825Z,9.23
2024-03-20T05:03:43.812Z,9.21
2024-03-20T05:04:43.805Z,9.21
2024-03-20T05:05:43.832Z,9.20
2024-03-20T05:06:43.782Z,9.20
2024-03-20T05:07:43.741Z,9.20
2024-03-20T05:08:43.743Z,9.18
2024-03-20T05:09:43.713Z,9.20
2024-03-20T05:10:43.703Z,9.20
2024-03-20T05:11:43.946Z,9.18
2024-03-20T05:12:43.705Z,9.18
2024-03-20T05:13:43.685Z,9.20
2024-03-20T05:14:43.772Z,9.20
2024-03-20T05:15:43.627Z,9.20
2024-03-20T05:16:44.555Z,9.20
2024-03-20T05:17:43.850Z,9.20
2024-03-20T05:18:43.606Z,9.20
2024-03-20T05:19:43.608Z,9.18
2024-03-20T05:20:43.559Z,9.18
2024-03-20T05:21:43.563Z,9.18
2024-03-20T05:22:43.687Z,9.18
2024-03-20T05:23:43.549Z,9.20
2024-03-20T05:24:43.540Z,9.21
2024-03-20T05:25:43.505Z,9.23
2024-03-20T05:26:43.600Z,9.23
2024-03-20T05:27:43.465Z,9.23
2024-03-20T05:28:43.520Z,9.24
2024-03-20T05:29:43.464Z,9.23
2024-03-20T05:30:43.497Z,9.24
2024-03-20T05:31:43.430Z,9.24
2024-03-20T05:32:43.406Z,9.23
2024-03-20T05:33:43.404Z,9.23
2024-03-20T05:34:43.424Z,9.23
2024-03-20T05:35:43.384Z,9.24
2024-03-20T05:36:43.364Z,9.23
2024-03-20T05:37:43.353Z,9.24
2024-03-20T05:38:43.370Z,9.26
2024-03-20T05:39:43.351Z,9.26
2024-03-20T05:40:43.316Z,9.26
2024-03-20T05:41:43.292Z,9.28
2024-03-20T05:42:45.889Z,9.26
2024-03-20T05:43:43.302Z,9.26
2024-03-20T05:44:43.255Z,9.26
2024-03-20T05:45:43.275Z,9.26
2024-03-20T05:46:43.232Z,9.28
2024-03-20T05:47:43.260Z,9.29
2024-03-20T05:48:43.205Z,9.29
2024-03-20T05:49:43.213Z,9.33
2024-03-20T05:50:43.214Z,9.31
2024-03-20T05:51:43.212Z,9.32
2024-03-20T05:52:43.173Z,9.33
2024-03-20T05:53:43.129Z,9.32
2024-03-20T05:54:43.128Z,9.33
2024-03-20T05:55:43.112Z,9.35
2024-03-20T05:56:43.140Z,9.36
2024-03-20T05:57:43.098Z,9.39
2024-03-20T05:58:43.072Z,9.42
2024-03-20T05:59:43.072Z,9.43
2024-03-20T06:00:43.062Z,9.48
2024-03-20T06:01:43.023Z,9.50
2024-03-20T06:02:43.029Z,9.50
2024-03-20T06:03:42.999Z,9.53
2024-03-20T06:04:43.008Z,9.56
2024-03-20T06:05:42.979Z,9.53
2024-03-20T06:06:42.954Z,9.54
2024-03-20T06:07:42.958Z,9.56
2024-03-20T06:09:51.913Z,9.57
2024-03-20T06:10:51.922Z,9.57
2024-03-20T06:11:51.979Z,9.58
2024-03-20T06:12:51.909Z,9.61
2024-03-20T06:13:51.912Z,9.65
2024-03-20T06:14:51.849Z,9.68
2024-03-20T06:15:51.831Z,9.69
2024-03-20T06:16:51.839Z,9.72
2024-03-20T06:17:51.838Z,9.75
2024-03-20T06:18:51.809Z,9.79
2024-03-20T06:19:51.842Z,9.81
2024-03-20T06:20:51.784Z,9.84
2024-03-20T06:21:51.765Z,9.86
2024-03-20T06:22:51.765Z,9.87
2024-03-20T06:23:51.737Z,9.90
2024-03-20T06:24:51.742Z,9.90
2024-03-20T06:25:51.723Z,9.93
2024-03-20T06:26:51.700Z,9.96
2024-03-20T06:27:51.690Z,9.97
2024-03-20T06:28:51.692Z,10.02
2024-03-20T06:29:51.674Z,10.04
2024-03-20T06:30:51.669Z,10.07
2024-03-20T06:31:51.644Z,10.08
2024-03-20T06:32:51.636Z,10.11
2024-03-20T06:33:51.614Z,10.15
2024-03-20T06:34:51.605Z,10.17
2024-03-20T06:35:51.630Z,10.17
2024-03-20T06:36:51.568Z,10.20
2024-03-20T06:37:51.565Z,10.23
2024-03-20T06:38:51.548Z,10.25
2024-03-20T06:39:51.547Z,10.29
2024-03-20T06:40:51.552Z,10.30
2024-03-20T06:41:51.564Z,10.30
2024-03-20T06:42:51.506Z,10.32
2024-03-20T06:43:51.477Z,10.38
2024-03-20T06:44:51.477Z,10.38
2024-03-20T06:45:54.039Z,10.42
2024-03-20T06:46:51.479Z,10.42
2024-03-20T06:47:51.440Z,10.47
2024-03-20T06:48:51.410Z,10.51
2024-03-20T06:49:51.464Z,10.55
2024-03-20T06:50:51.401Z,10.59
2024-03-20T06:51:51.375Z,10.60
2024-03-20T06:52:51.403Z,10.63
2024-03-20T06:53:51.374Z,10.64
2024-03-20T06:54:51.345Z,10.66
2024-03-20T06:55:51.337Z,10.70
2024-03-20T06:56:51.349Z,10.71
2024-03-20T06:57:51.434Z,10.76
2024-03-20T06:58:51.306Z,10.79
2024-03-20T06:59:51.315Z,10.84
2024-03-20T07:00:51.287Z,10.86
2024-03-20T07:01:51.259Z,10.92
2024-03-20T07:02:51.235Z,10.97
2024-03-20T07:03:51.275Z,11.02
2024-03-20T07:04:51.213Z,11.04
2024-03-20T07:05:51.206Z,11.10
2024-03-20T07:06:51.184Z,11.17
2024-03-20T07:07:51.164Z,11.24
2024-03-20T07:08:51.171Z,11.22
2024-03-20T07:09:51.206Z,11.28
2024-03-20T07:10:52.073Z,11.35
2024-03-20T07:11:51.119Z,11.37
2024-03-20T07:12:51.095Z,11.42
2024-03-20T07:13:51.098Z,11.46
2024-03-20T07:14:51.118Z,11.51
2024-03-20T07:15:51.063Z,11.54
2024-03-20T07:16:51.034Z,11.58
2024-03-20T07:17:51.036Z,11.58
2024-03-20T07:18:51.050Z,11.65
2024-03-20T07:19:51.052Z,11.69
2024-03-20T07:20:51.009Z,11.73
2024-03-20T07:21:51.005Z,11.75
2024-03-20T07:22:50.969Z,11.78
2024-03-20T07:23:50.944Z,11.80
2024-03-20T07:24:50.939Z,11.82
2024-03-20T07:25:50.941Z,11.86
2024-03-20T07:26:50.909Z,11.88
2024-03-20T07:27:50.900Z,11.94
2024-03-20T07:28:50.900Z,11.95
2024-03-20T07:29:50.864Z,11.98
2024-03-20T07:30:50.881Z,12.02
2024-03-20T07:31:50.866Z,12.04
2024-03-20T07:32:50.829Z,12.07
2024-03-20T07:33:50.834Z,12.10
2024-03-20T07:34:50.793Z,12.14
2024-03-20T07:35:50.802Z,12.17
2024-03-20T07:36:50.806Z,12.20
2024-03-20T07:37:50.764Z,12.27
2024-03-20T07:38:50.812Z,12.31
2024-03-20T07:39:50.771Z,12.34
2024-03-20T07:40:50.734Z,12.38
2024-03-20T07:41:50.730Z,12.45
2024-03-20T07:42:50.698Z,12.45
2024-03-20T07:43:50.707Z,12.52
2024-03-20T07:44:50.735Z,12.56
2024-03-20T07:45:50.681Z,12.60
2024-03-20T07:46:51.365Z,12.65
2024-03-20T07:47:50.677Z,12.68
2024-03-20T07:48:50.628Z,12.72
2024-03-20T07:49:50.646Z,12.77
2024-03-20T07:50:50.608Z,12.83
2024-03-20T07:51:50.604Z,12.87
2024-03-20T07:52:50.609Z,12.92
2024-03-20T07:53:50.607Z,12.97
2024-03-20T07:54:50.536Z,13.03
2024-03-20T07:55:50.590Z,13.05
2024-03-20T07:56:50.558Z,13.11
2024-03-20T07:57:50.517Z,13.19
2024-03-20T07:58:50.538Z,13.22
2024-03-20T07:59:50.499Z,13.25
2024-03-20T08:00:50.453Z,13.33
2024-03-20T08:01:50.499Z,13.38
2024-03-20T08:02:50.446Z,13.42
2024-03-20T08:03:50.552Z,13.44
2024-03-20T08:04:50.412Z,13.49
2024-03-20T08:05:50.421Z,13.54
2024-03-20T08:06:50.382Z,13.57
2024-03-20T08:07:50.406Z,13.60
2024-03-20T08:08:50.362Z,13.66
2024-03-20T08:09:50.374Z,13.70
2024-03-20T08:10:50.384Z,13.71
2024-03-20T08:11:50.337Z,13.75
2024-03-20T08:12:50.325Z,13.75
2024-03-20T08:13:50.373Z,13.79
2024-03-20T08:14:50.314Z,13.84
2024-03-20T08:15:50.285Z,13.88
2024-03-20T08:16:50.283Z,13.92
2024-03-20T08:17:50.230Z,13.97
2024-03-20T08:18:50.233Z,14.02
2024-03-20T08:19:50.306Z,14.04
2024-03-20T08:20:50.244Z,14.09
2024-03-20T08:21:50.221Z,14.10
2024-03-20T08:22:50.251Z,14.15
2024-03-20T08:23:50.162Z,14.20
2024-03-20T08:24:50.169Z,14.22
2024-03-20T08:25:50.210Z,14.27
2024-03-20T08:26:50.176Z,14.28
2024-03-20T08:27:50.159Z,14.35
2024-03-20T08:28:50.116Z,14.37
2024-03-20T08:29:51.020Z,14.43
2024-03-20T08:30:50.068Z,14.46
2024-03-20T08:31:50.278Z,14.52
2024-03-20T08:32:50.077Z,14.55
2024-03-20T08:33:50.115Z,14.60
2024-03-20T08:34:50.037Z,14.65
2024-03-20T08:35:50.025Z,14.69
2024-03-20T08:36:50.004Z,14.72
2024-03-20T08:37:50.037Z,14.78
2024-03-20T08:38:50.058Z,14.86
2024-03-20T08:39:49.963Z,14.89
2024-03-20T08:40:49.931Z,14.95
2024-03-20T08:41:49.937Z,15.02
2024-03-20T08:42:49.930Z,15.11
2024-03-20T08:43:49.938Z,15.19
2024-03-20T08:44:49.985Z,15.21
2024-03-20T08:45:49.898Z,15.28
2024-03-20T08:46:49.866Z,15.31
2024-03-20T08:47:49.905Z,15.38
2024-03-20T08:48:49.849Z,15.39
2024-03-20T08:49:49.859Z,15.43
2024-03-20T08:50:51.316Z,15.44
2024-03-20T08:51:49.839Z,15.47
2024-03-20T08:52:49.773Z,15.49
2024-03-20T08:53:49.802Z,15.51
2024-03-20T08:54:49.833Z,15.54
2024-03-20T08:55:49.820Z,15.57
2024-03-20T08:56:49.767Z,15.60
2024-03-20T08:57:49.760Z,15.65
2024-03-20T08:58:49.744Z,15.67
2024-03-20T08:59:49.700Z,15.71
2024-03-20T09:00:49.694Z,15.78
2024-03-20T09:01:49.675Z,15.87
2024-03-20T09:02:49.665Z,15.92
2024-03-20T09:03:49.683Z,15.92
2024-03-20T09:04:49.661Z,15.97
2024-03-20T09:05:49.697Z,16.05
2024-03-20T09:06:49.615Z,16.14
2024-03-20T09:07:49.627Z,16.24
2024-03-20T09:08:49.582Z,16.33
2024-03-20T09:09:49.619Z,16.42
2024-03-20T09:10:49.577Z,16.52
2024-03-20T09:11:49.529Z,16.61
2024-03-20T09:12:49.558Z,16.66
2024-03-20T09:13:49.576Z,16.73
2024-03-20T09:14:49.550Z,16.81
2024-03-20T09:15:49.555Z,16.88
2024-03-20T09:16:49.492Z,16.91
2024-03-20T09:17:49.476Z,16.93
2024-03-20T09:18:49.477Z,16.89
2024-03-20T09:19:49.433Z,16.94
2024-03-20T09:20:49.639Z,16.98
2024-03-20T09:21:49.416Z,17.03
2024-03-20T09:22:49.401Z,17.14
2024-03-20T09:23:49.405Z,17.18
2024-03-20T09:24:49.354Z,17.25
2024-03-20T09:25:49.404Z,17.34
2024-03-20T09:26:49.363Z,17.41
2024-03-20T09:27:49.332Z,17.48
2024-03-20T09:28:49.306Z,17.54
2024-03-20T09:29:49.287Z,17.62
2024-03-20T09:30:49.308Z,17.64
2024-03-20T09:31:49.303Z,17.66
2024-03-20T09:32:49.257Z,17.72
2024-03-20T09:33:49.222Z,17.77
2024-03-20T09:34:49.211Z,17.82
2024-03-20T09:35:49.315Z,17.90
2024-03-20T09:36:49.201Z,17.90
2024-03-20T09:37:49.204Z,17.93
2024-03-20T09:38:49.285Z,17.95
2024-03-20T09:39:49.228Z,17.97
2024-03-20T09:40:49.173Z,18.00
2024-03-20T09:41:49.174Z,18.07
2024-03-20T09:42:49.165Z,18.08
2024-03-20T09:43:49.127Z,18.14
2024-03-20T09:44:49.088Z,18.15
2024-03-20T09:45:49.102Z,18.18
2024-03-20T09:46:49.104Z,18.21
2024-03-20T09:47:49.069Z,18.27
2024-03-20T09:48:49.090Z,18.33
2024-03-20T09:49:49.020Z,18.35
2024-03-20T09:50:49.022Z,18.39
2024-03-20T09:51:49.001Z,18.39
2024-03-20T09:52:48.987Z,18.44
2024-03-20T09:53:48.995Z,18.45
2024-03-20T09:54:48.949Z,18.52
2024-03-20T09:55:48.956Z,18.55
2024-03-20T09:56:48.925Z,18.63
2024-03-20T09:57:48.933Z,18.69
2024-03-20T09:58:48.910Z,18.75
2024-03-20T09:59:48.933Z,18.80
2024-03-20T10:00:48.921Z,18.81
2024-03-20T10:01:48.868Z,18.78
2024-03-20T10:02:48.878Z,18.75
2024-03-20T10:03:48.860Z,18.78
2024-03-20T10:04:55.891Z,18.84
2024-03-20T10:05:49.847Z,18.84
2024-03-20T10:06:48.831Z,18.85
2024-03-20T10:07:48.797Z,18.91
2024-03-20T10:08:48.791Z,18.94
2024-03-20T10:09:48.817Z,18.99
2024-03-20T10:10:48.818Z,19.14
2024-03-20T10:11:48.771Z,19.28
2024-03-20T10:12:48.770Z,19.43
2024-03-20T10:13:48.744Z,19.58
2024-03-20T10:14:48.726Z,19.68
2024-03-20T10:15:48.746Z,19.68
2024-03-20T10:16:54.199Z,19.77
2024-03-20T10:17:49.667Z,19.86
2024-03-20T10:18:48.654Z,19.95
2024-03-20T10:19:48.667Z,20.06
2024-03-20T10:20:48.619Z,20.23
2024-03-20T10:21:48.624Z,20.36
2024-03-20T10:22:57.333Z,20.52
2024-03-20T10:23:49.587Z,20.59
2024-03-20T10:24:48.591Z,20.42
2024-03-20T10:25:48.588Z,20.41
2024-03-20T10:26:48.564Z,20.35
2024-03-20T10:27:48.522Z,20.26
2024-03-20T10:28:48.548Z,20.31
2024-03-20T10:29:55.686Z,20.33
2024-03-20T10:30:49.502Z,20.24
2024-03-20T10:31:48.507Z,20.26
2024-03-20T10:32:48.490Z,20.29
2024-03-20T10:33:48.486Z,20.33
2024-03-20T10:34:48.460Z,20.38
2024-03-20T10:35:48.419Z,20.43
2024-03-20T10:36:48.451Z,20.54
2024-03-20T10:37:48.436Z,20.62
2024-03-20T10:38:48.398Z,20.62
2024-03-20T10:39:48.366Z,20.54
2024-03-20T10:40:48.367Z,20.50
2024-03-20T10:41:48.402Z,20.43
2024-03-20T10:42:48.329Z,20.16
2024-03-20T10:43:48.332Z,20.02
2024-03-20T10:44:48.330Z,20.01
2024-03-20T10:45:48.286Z,20.02
2024-03-20T10:46:48.304Z,20.14
2024-03-20T10:47:48.259Z,20.33
2024-03-20T10:48:48.266Z,20.54
2024-03-20T10:49:48.252Z,20.66
2024-03-20T10:50:48.219Z,20.74
2024-03-20T10:51:48.220Z,20.82
2024-03-20T10:52:48.200Z,20.91
2024-03-20T10:53:48.242Z,21.07
2024-03-20T10:54:48.200Z,21.29
2024-03-20T10:55:48.148Z,21.44
2024-03-20T10:56:48.167Z,21.42
2024-03-20T10:57:48.175Z,21.35
2024-03-20T10:58:48.161Z,21.29
2024-03-20T10:59:48.146Z,21.32
2024-03-20T11:00:48.108Z,21.43
2024-03-20T11:01:48.083Z,21.54
2024-03-20T11:02:48.053Z,21.68
2024-03-20T11:03:48.059Z,21.62
2024-03-20T11:04:48.033Z,21.59
2024-03-20T11:05:48.048Z,21.61
2024-03-20T11:06:48.013Z,21.58
2024-03-20T11:07:48.058Z,21.62
2024-03-20T11:08:48.004Z,21.72
2024-03-20T11:09:47.990Z,21.82
2024-03-20T11:10:47.991Z,21.91
2024-03-20T11:11:47.985Z,21.98
2024-03-20T11:12:47.956Z,22.00
2024-03-20T11:13:47.991Z,21.88
2024-03-20T11:14:47.918Z,21.75
2024-03-20T11:15:49.144Z,21.61
2024-03-20T11:16:47.935Z,21.40
2024-03-20T11:17:47.905Z,21.17
2024-03-20T11:18:47.987Z,21.01
2024-03-20T11:19:47.850Z,20.94
2024-03-20T11:20:47.838Z,20.97
2024-03-20T11:21:47.853Z,20.95
2024-03-20T11:22:47.836Z,20.98
2024-03-20T11:23:47.806Z,21.04
2024-03-20T11:24:47.802Z,20.89
2024-03-20T11:25:47.791Z,20.82
2024-03-20T11:26:47.744Z,20.74
2024-03-20T11:27:47.753Z,20.67
2024-03-20T11:28:47.730Z,20.61
2024-03-20T11:29:47.729Z,20.54
2024-03-20T11:30:48.675Z,20.50
2024-03-20T11:31:47.681Z,20.35
2024-03-20T11:32:47.688Z,20.31
2024-03-20T11:33:47.680Z,20.23
2024-03-20T11:34:47.653Z,20.16
2024-03-20T11:35:49.734Z,20.02
2024-03-20T11:36:47.617Z,19.81
2024-03-20T11:37:47.618Z,19.74
2024-03-20T11:38:47.619Z,19.71
2024-03-20T11:39:47.608Z,19.73
2024-03-20T11:40:47.623Z,19.74
2024-03-20T11:41:47.560Z,19.80
2024-03-20T11:42:47.555Z,19.87
2024-03-20T11:43:47.548Z,19.91
2024-03-20T11:44:47.534Z,19.96
2024-03-20T11:45:48.494Z,19.99
2024-03-20T11:46:47.484Z,20.03
2024-03-20T11:47:47.489Z,20.03
2024-03-20T11:48:47.468Z,20.06
2024-03-20T11:49:47.520Z,19.99
2024-03-20T11:50:47.479Z,20.01
2024-03-20T11:51:47.436Z,20.02
2024-03-20T11:52:47.420Z,20.03
2024-03-20T11:53:49.862Z,20.06
2024-03-20T11:54:47.409Z,20.14
2024-03-20T11:55:47.392Z,20.13
2024-03-20T11:56:47.399Z,20.13
2024-03-20T11:57:47.423Z,20.21
2024-03-20T11:58:47.365Z,20.26
2024-03-20T11:59:50.177Z,20.35
2024-03-20T12:00:47.331Z,20.38
2024-03-20T12:01:47.326Z,20.50
2024-03-20T12:02:47.334Z,20.64
2024-03-20T12:03:47.289Z,20.77
2024-03-20T12:04:47.277Z,20.77
2024-03-20T12:05:50.028Z,20.64
2024-03-20T12:06:47.293Z,20.57
2024-03-20T12:07:47.221Z,20.52
2024-03-20T12:08:47.231Z,20.47
2024-03-20T12:09:47.204Z,20.42
2024-03-20T12:10:47.232Z,20.36
2024-03-20T12:11:47.192Z,20.43
2024-03-20T12:12:47.258Z,20.31
2024-03-20T12:13:47.159Z,20.21
2024-03-20T12:14:47.139Z,20.14
2024-03-20T12:15:47.171Z,20.01
2024-03-20T12:16:47.124Z,20.05
2024-03-20T12:17:47.078Z,20.14
2024-03-20T12:18:47.111Z,20.28
2024-03-20T12:19:47.109Z,20.35
2024-03-20T12:20:47.062Z,20.36
2024-03-20T12:21:47.173Z,20.41
2024-03-20T12:22:47.081Z,20.43
2024-03-20T12:23:47.045Z,20.38
2024-03-20T12:24:52.734Z,20.36
2024-03-20T12:25:47.981Z,20.38
2024-03-20T12:26:47.037Z,20.33
2024-03-20T12:27:47.091Z,20.33
2024-03-20T12:28:47.005Z,20.35
2024-03-20T12:29:47.020Z,20.48
2024-03-20T12:30:46.965Z,20.64
2024-03-20T12:31:46.977Z,20.82
2024-03-20T12:32:46.945Z,21.04
2024-03-20T12:33:46.938Z,21.17
2024-03-20T12:34:46.933Z,21.27
2024-03-20T12:35:47.517Z,21.35
2024-03-20T12:36:46.888Z,21.44
2024-03-20T12:37:46.838Z,21.50
2024-03-20T12:38:46.827Z,21.52
2024-03-20T12:39:46.884Z,21.49
2024-03-20T12:40:46.802Z,21.40
2024-03-20T12:41:46.768Z,21.22
2024-03-20T12:42:46.830Z,21.10
2024-03-20T12:43:46.773Z,20.97
2024-03-20T12:44:46.804Z,20.82
2024-03-20T12:45:46.732Z,20.74
2024-03-20T12:46:46.723Z,20.73
2024-03-20T12:47:46.723Z,20.77
2024-03-20T12:48:46.731Z,20.91
2024-03-20T12:49:46.661Z,20.99
2024-03-20T12:50:46.692Z,21.07
2024-03-20T12:51:46.696Z,21.21
2024-03-20T12:52:46.616Z,21.37
2024-03-20T12:53:46.624Z,21.54
2024-03-20T12:54:46.638Z,21.72
2024-03-20T12:55:46.613Z,21.86
2024-03-20T12:56:46.594Z,22.00
2024-03-20T12:57:46.610Z,22.02
2024-03-20T12:58:46.549Z,22.03